createdAt,value
2022-12-15T08:48:12.171Z,65.23
2022-12-15T08:51:15.111Z,68.20
2022-12-15T08:54:19.297Z,71.82
2022-12-15T08:57:21.681Z,69.85
2022-12-15T09:00:24.064Z,64.80
2022-12-15T09:03:27.485Z,68.23
2022-12-15T09:06:33.907Z,69.72
2022-12-15T09:09:36.263Z,68.22
2022-12-15T09:12:38.592Z,70.45
2022-12-15T09:16:08.190Z,67.85
2022-12-15T09:19:05.874Z,61.90
2022-12-15T09:22:08.171Z,68.90
2022-12-15T09:25:10.647Z,61.90
2022-12-15T09:28:14.461Z,64.03
2022-12-15T09:31:22.855Z,62.00
2022-12-15T09:34:25.614Z,67.67
2022-12-15T09:37:28.215Z,66.13
2022-12-15T09:40:31.054Z,63.45
2022-12-15T09:43:46.290Z,66.13
2022-12-15T09:47:18.865Z,68.95
2022-12-15T09:50:27.982Z,57.73
2022-12-15T09:53:54.140Z,68.90
2022-12-15T09:56:58.004Z,70.93
2022-12-15T10:00:12.750Z,69.03
2022-12-15T10:03:27.117Z,67.60
2022-12-15T10:06:38.930Z,72.70
2022-12-15T10:09:41.329Z,67.68
2022-12-15T10:12:59.930Z,67.57
2022-12-15T10:16:14.421Z,64.38
2022-12-15T10:19:26.835Z,61.95
2022-12-15T10:22:34.206Z,64.07
2022-12-15T10:25:36.634Z,68.15
2022-12-15T10:28:58.460Z,67.63
2022-12-15T10:32:08.069Z,62.95
2022-12-15T10:35:17.378Z,61.08
2022-12-15T10:38:50.485Z,64.50
2022-12-15T10:42:12.983Z,64.93
2022-12-15T10:45:38.241Z,71.45
2022-12-15T10:48:43.601Z,66.45
2022-12-15T10:51:57.346Z,68.82
2022-12-15T10:54:59.730Z,69.33
2022-12-15T10:58:04.431Z,72.65
2022-12-15T11:01:14.636Z,72.15
2022-12-15T11:04:32.040Z,75.57
2022-12-15T11:07:41.725Z,63.50
2022-12-15T11:11:16.519Z,72.40
2022-12-15T11:14:24.281Z,66.43
2022-12-15T11:17:40.617Z,62.22
2022-12-15T11:21:09.938Z,62.28
2022-12-15T11:24:22.043Z,65.18
2022-12-15T11:27:38.984Z,66.23
2022-12-15T11:30:54.432Z,55.30
2022-12-15T11:33:57.034Z,61.33
2022-12-15T11:37:37.277Z,50.65
2022-12-15T11:40:43.622Z,58.95
2022-12-15T11:44:15.979Z,59.77
2022-12-15T11:47:30.077Z,63.03
2022-12-15T11:51:01.856Z,61.55
2022-12-15T11:54:07.337Z,62.95
2022-12-15T11:57:27.674Z,60.25
2022-12-15T12:00:35.312Z,64.33
2022-12-15T12:07:42.282Z,64.28
2022-12-15T12:10:53.328Z,58.95
2022-12-15T12:14:33.341Z,62.85
2022-12-15T12:18:03.230Z,67.17
2022-12-15T12:21:10.838Z,68.03
2022-12-15T12:24:24.180Z,64.97
2022-12-15T12:27:36.277Z,65.88
2022-12-15T12:30:44.537Z,67.55
2022-12-15T12:33:52.969Z,65.27
2022-12-15T12:37:09.797Z,65.97
2022-12-15T12:40:33.915Z,66.50
2022-12-15T12:43:45.078Z,72.68
2022-12-15T12:46:56.826Z,72.10
2022-12-15T12:50:07.360Z,67.87
2022-12-15T12:53:25.560Z,74.25
2022-12-15T12:56:36.948Z,82.97
2022-12-15T12:59:43.309Z,79.22
2022-12-15T13:02:48.175Z,77.93
2022-12-15T13:05:54.676Z,80.73
2022-12-15T13:08:57.022Z,82.00
2022-12-15T13:12:15.081Z,69.00
2022-12-15T13:15:37.360Z,82.90
2022-12-15T13:18:57.829Z,78.70
2022-12-15T13:22:00.781Z,60.33
2022-12-15T13:25:35.947Z,75.85
2022-12-15T13:28:42.753Z,72.53
2022-12-15T13:31:49.280Z,71.35
2022-12-15T13:34:51.955Z,71.88
2022-12-15T13:37:58.745Z,69.43
2022-12-15T13:41:01.077Z,69.00
2022-12-15T13:44:15.567Z,71.13
2022-12-15T13:47:24.663Z,70.72
2022-12-15T13:50:51.382Z,72.35
2022-12-15T13:54:02.149Z,76.17
2022-12-15T13:57:09.931Z,69.22
2022-12-15T14:00:21.822Z,77.50
2022-12-15T14:03:25.193Z,75.13
2022-12-15T14:06:35.107Z,69.28
2022-12-15T14:09:42.182Z,77.23
2022-12-15T14:12:45.711Z,76.85
2022-12-15T14:15:55.375Z,76.28
2022-12-15T14:19:05.122Z,71.95
2022-12-15T14:22:25.194Z,69.30
2022-12-15T14:25:30.610Z,70.43
2022-12-15T14:28:36.031Z,76.95
2022-12-15T14:31:38.640Z,69.03
2022-12-15T14:34:41.988Z,76.68
2022-12-15T14:37:44.766Z,77.72
2022-12-15T14:40:49.574Z,76.17
2022-12-15T14:44:36.711Z,76.05
2022-12-15T14:47:30.569Z,76.32
2022-12-15T14:50:33.306Z,79.57
2022-12-15T14:53:38.598Z,71.97
2022-12-15T14:56:40.855Z,83.17
2022-12-15T14:59:45.950Z,73.68
2022-12-15T15:02:48.416Z,83.25
2022-12-15T15:06:05.220Z,83.28
2022-12-15T15:09:27.903Z,87.97
2022-12-15T15:12:43.802Z,72.27
2022-12-15T15:16:00.201Z,68.25
2022-12-15T15:19:05.931Z,73.95
2022-12-15T15:22:35.644Z,66.80
2022-12-15T15:25:40.655Z,68.18
2022-12-15T15:28:44.703Z,74.97
2022-12-15T15:31:52.617Z,87.68
2022-12-15T15:34:55.036Z,73.38
2022-12-15T15:38:04.190Z,70.82
2022-12-15T15:41:31.487Z,76.72
2022-12-15T15:44:37.520Z,76.43
2022-12-15T15:47:47.644Z,73.47
2022-12-15T15:50:50.356Z,76.97
2022-12-15T15:53:56.116Z,69.90
2022-12-15T15:56:58.408Z,84.55
2022-12-15T16:00:01.913Z,77.30
2022-12-15T16:03:04.442Z,76.22
2022-12-15T16:06:18.609Z,79.03
2022-12-15T16:09:21.310Z,77.90
2022-12-15T16:12:27.920Z,77.10
2022-12-15T16:15:34.245Z,78.00
2022-12-15T16:18:36.645Z,83.75
2022-12-15T16:21:40.317Z,75.20
2022-12-15T16:24:43.490Z,72.05
2022-12-15T16:27:46.152Z,70.18
2022-12-15T16:30:48.815Z,73.90
2022-12-15T16:33:51.225Z,73.55
2022-12-15T16:36:53.972Z,78.53
2022-12-15T16:39:56.320Z,76.40
2022-12-15T16:43:00.800Z,70.15
2022-12-15T16:46:03.360Z,72.23
2022-12-15T16:49:05.775Z,65.25
2022-12-15T16:52:19.288Z,66.97
2022-12-15T16:55:25.476Z,69.35
2022-12-15T16:58:29.033Z,74.47
2022-12-15T17:01:35.435Z,70.97
2022-12-15T17:04:42.038Z,65.32
2022-12-15T17:07:50.633Z,62.08
2022-12-15T17:10:53.598Z,66.28
2022-12-15T17:13:57.953Z,55.65
2022-12-15T17:17:00.182Z,60.63
2022-12-15T17:20:28.712Z,53.03
2022-12-15T17:23:25.206Z,57.70
2022-12-15T17:26:30.410Z,62.08
2022-12-15T17:29:33.297Z,58.63
2022-12-15T17:32:35.534Z,54.70
2022-12-15T17:35:37.959Z,59.88
2022-12-15T17:38:40.472Z,64.75
2022-12-15T17:41:59.454Z,65.22
2022-12-15T17:45:02.673Z,47.67
2022-12-15T17:48:05.036Z,58.80
2022-12-15T17:51:17.195Z,53.85
2022-12-15T17:54:20.223Z,60.13
2022-12-15T17:57:23.054Z,57.95
2022-12-15T18:00:28.289Z,55.67
2022-12-15T18:03:31.562Z,55.03
2022-12-15T18:06:34.328Z,57.47
2022-12-15T18:09:36.639Z,51.65
2022-12-15T18:12:38.899Z,61.00
2022-12-15T18:15:41.219Z,53.33
2022-12-15T18:18:43.504Z,55.97
2022-12-15T18:21:45.861Z,55.95
2022-12-15T18:24:49.690Z,60.90
2022-12-15T18:27:56.803Z,64.65
2022-12-15T18:31:13.811Z,60.85
2022-12-15T18:34:18.772Z,52.07
2022-12-15T18:37:23.230Z,65.35
2022-12-15T18:40:29.489Z,59.17
2022-12-15T18:43:34.013Z,51.70
2022-12-15T18:46:36.550Z,52.17
2022-12-15T18:49:38.891Z,54.83
2022-12-15T18:52:41.420Z,56.05
2022-12-15T18:55:43.810Z,58.38
2022-12-15T18:58:46.073Z,54.45
2022-12-15T19:01:49.148Z,54.58
2022-12-15T19:04:51.500Z,58.30
2022-12-15T19:08:00.224Z,56.42
2022-12-15T19:11:05.270Z,65.72
2022-12-15T19:14:34.297Z,65.90
2022-12-15T19:17:55.435Z,64.72
2022-12-15T19:21:16.563Z,62.00
2022-12-15T19:24:54.898Z,64.53
2022-12-15T19:27:59.842Z,64.13
2022-12-15T19:31:02.367Z,58.72
2022-12-15T19:34:04.757Z,54.70
2022-12-15T19:37:14.103Z,55.67
2022-12-15T19:40:22.312Z,56.55
2022-12-15T19:43:25.483Z,56.25
2022-12-15T19:46:27.916Z,59.25
2022-12-15T19:49:30.137Z,54.78
2022-12-15T19:52:32.494Z,55.30
2022-12-15T19:55:36.212Z,56.55
2022-12-15T19:58:38.803Z,58.60
2022-12-15T20:01:41.125Z,57.78
2022-12-15T20:04:43.803Z,50.65
2022-12-15T20:07:47.218Z,56.17
2022-12-15T20:10:50.665Z,52.03
2022-12-15T20:13:53.690Z,48.95
2022-12-15T20:16:56.011Z,49.33
2022-12-15T20:19:58.313Z,50.08
2022-12-15T20:23:05.585Z,48.17
2022-12-15T20:26:07.866Z,49.90
2022-12-15T20:29:30.814Z,48.42
2022-12-15T20:32:38.222Z,47.85
2022-12-15T20:35:42.808Z,40.85
2022-12-15T20:38:45.972Z,42.90
2022-12-15T20:41:48.457Z,38.80
2022-12-15T20:44:51.152Z,37.33
2022-12-15T20:47:55.996Z,38.70
2022-12-15T20:50:58.371Z,37.53
2022-12-15T20:54:02.897Z,33.07
2022-12-15T20:57:05.190Z,33.17
2022-12-15T21:00:08.118Z,31.30
2022-12-15T21:03:33.523Z,34.63
2022-12-15T21:06:36.932Z,32.10
2022-12-15T21:09:39.405Z,30.47
2022-12-15T21:12:43.468Z,30.20
2022-12-15T21:15:46.172Z,29.65
2022-12-15T21:22:26.712Z,31.02
2022-12-15T21:25:29.968Z,28.00
2022-12-15T21:28:32.638Z,28.45
2022-12-15T21:31:35.311Z,29.23
2022-12-15T21:34:37.773Z,27.63
2022-12-15T21:37:40.560Z,30.48
2022-12-15T21:40:42.802Z,30.17
2022-12-15T21:43:45.425Z,32.47
2022-12-15T21:46:47.762Z,31.17
2022-12-15T21:49:50.014Z,30.98
2022-12-15T21:52:52.827Z,31.73
2022-12-15T21:56:00.178Z,32.87
2022-12-15T21:59:02.408Z,31.90
2022-12-15T22:02:25.945Z,34.85
2022-12-15T22:05:32.507Z,31.30
2022-12-15T22:08:35.241Z,31.30
2022-12-15T22:11:39.369Z,26.80
2022-12-15T22:14:42.459Z,32.08
2022-12-15T22:17:44.895Z,27.42
2022-12-15T22:20:48.309Z,26.33
2022-12-15T22:23:51.610Z,25.65
2022-12-15T22:26:53.842Z,24.43
2022-12-15T22:29:57.202Z,25.75
2022-12-15T22:32:59.553Z,28.20
2022-12-15T22:36:01.774Z,27.00
2022-12-15T22:39:08.293Z,28.75
2022-12-15T22:42:17.482Z,27.93
2022-12-15T22:45:22.027Z,25.90
2022-12-15T22:48:34.335Z,33.78
2022-12-15T22:51:36.949Z,26.88
2022-12-15T22:54:42.640Z,32.42
2022-12-15T22:58:10.329Z,32.87
2022-12-15T23:01:12.917Z,31.60
2022-12-15T23:04:15.343Z,29.75
2022-12-15T23:07:17.637Z,33.30
2022-12-15T23:10:39.297Z,30.95
2022-12-15T23:13:41.626Z,27.97
2022-12-15T23:16:46.358Z,32.40
2022-12-15T23:19:48.638Z,29.67
2022-12-15T23:22:50.891Z,35.83
2022-12-15T23:25:55.308Z,32.53
2022-12-15T23:28:57.674Z,29.63
2022-12-15T23:31:59.973Z,29.08
2022-12-15T23:35:02.258Z,33.22
2022-12-15T23:38:04.506Z,32.28
2022-12-15T23:41:06.921Z,32.75
2022-12-15T23:44:12.287Z,29.33
2022-12-15T23:47:14.659Z,31.10
2022-12-15T23:50:18.465Z,29.35
2022-12-15T23:53:20.768Z,30.85
2022-12-15T23:56:24.497Z,32.90
2022-12-15T23:59:26.694Z,33.77
